sensor_id;sensor_type;location;lat;lon;timestamp;P1;durP1;ratioP1;P2;durP2;ratioP2
19482;SDS011;9882;51.166;6.992;2023-07-02T00:00:38;12.20;;;3.92;;
19482;SDS011;9882;51.166;6.992;2023-07-02T00:03:09;6.10;;;2.88;;
19482;SDS011;9882;51.166;6.992;2023-07-02T00:05:38;9.23;;;3.72;;
19482;SDS011;9882;51.166;6.992;2023-07-02T00:08:08;9.50;;;3.75;;
19482;SDS011;9882;51.166;6.992;2023-07-02T00:10:37;16.10;;;3.63;;
19482;SDS011;9882;51.166;6.992;2023-07-02T00:13:07;10.57;;;3.95;;
19482;SDS011;9882;51.166;6.992;2023-07-02T00:15:36;12.20;;;3.67;;
19482;SDS011;9882;51.166;6.992;2023-07-02T00:18:05;8.43;;;3.40;;
19482;SDS011;9882;51.166;6.992;2023-07-02T00:20:37;7.25;;;3.28;;
19482;SDS011;9882;51.166;6.992;2023-07-02T00:23:09;10.32;;;3.45;;
19482;SDS011;9882;51.166;6.992;2023-07-02T00:25:38;9.50;;;3.80;;
19482;SDS011;9882;51.166;6.992;2023-07-02T00:28:07;13.15;;;3.88;;
19482;SDS011;9882;51.166;6.992;2023-07-02T00:30:37;9.55;;;3.35;;
19482;SDS011;9882;51.166;6.992;2023-07-02T00:33:07;10.07;;;3.67;;
19482;SDS011;9882;51.166;6.992;2023-07-02T00:35:38;8.43;;;3.20;;
19482;SDS011;9882;51.166;6.992;2023-07-02T00:38:08;13.38;;;3.65;;
19482;SDS011;9882;51.166;6.992;2023-07-02T00:40:38;7.63;;;3.50;;
19482;SDS011;9882;51.166;6.992;2023-07-02T00:43:07;7.72;;;3.42;;
19482;SDS011;9882;51.166;6.992;2023-07-02T00:45:40;16.98;;;4.15;;
19482;SDS011;9882;51.166;6.992;2023-07-02T00:48:09;8.52;;;3.30;;
19482;SDS011;9882;51.166;6.992;2023-07-02T00:50:41;10.95;;;3.58;;
19482;SDS011;9882;51.166;6.992;2023-07-02T00:53:11;7.78;;;3.45;;
19482;SDS011;9882;51.166;6.992;2023-07-02T00:55:40;14.70;;;4.05;;
19482;SDS011;9882;51.166;6.992;2023-07-02T00:58:09;13.20;;;4.30;;
19482;SDS011;9882;51.166;6.992;2023-07-02T01:00:43;14.52;;;4.05;;
19482;SDS011;9882;51.166;6.992;2023-07-02T01:03:13;13.88;;;4.15;;
19482;SDS011;9882;51.166;6.992;2023-07-02T01:05:46;12.18;;;3.88;;
19482;SDS011;9882;51.166;6.992;2023-07-02T01:08:15;20.45;;;4.50;;
19482;SDS011;9882;51.166;6.992;2023-07-02T01:10:45;13.75;;;4.30;;
19482;SDS011;9882;51.166;6.992;2023-07-02T01:13:17;18.30;;;4.45;;
19482;SDS011;9882;51.166;6.992;2023-07-02T01:15:50;23.95;;;5.28;;
19482;SDS011;9882;51.166;6.992;2023-07-02T01:18:20;18.92;;;4.85;;
19482;SDS011;9882;51.166;6.992;2023-07-02T01:20:52;17.60;;;5.15;;
19482;SDS011;9882;51.166;6.992;2023-07-02T01:23:23;14.05;;;4.95;;
19482;SDS011;9882;51.166;6.992;2023-07-02T01:25:53;15.20;;;4.32;;
19482;SDS011;9882;51.166;6.992;2023-07-02T01:28:25;16.45;;;5.25;;
19482;SDS011;9882;51.166;6.992;2023-07-02T01:30:54;17.42;;;5.07;;
19482;SDS011;9882;51.166;6.992;2023-07-02T01:33:29;21.48;;;6.38;;
19482;SDS011;9882;51.166;6.992;2023-07-02T01:36:01;16.88;;;5.38;;
19482;SDS011;9882;51.166;6.992;2023-07-02T01:38:31;16.67;;;4.97;;
19482;SDS011;9882;51.166;6.992;2023-07-02T01:41:00;21.80;;;5.40;;
19482;SDS011;9882;51.166;6.992;2023-07-02T01:43:29;14.95;;;5.57;;
19482;SDS011;9882;51.166;6.992;2023-07-02T01:45:59;15.38;;;5.40;;
19482;SDS011;9882;51.166;6.992;2023-07-02T01:48:29;22.45;;;6.18;;
19482;SDS011;9882;51.166;6.992;2023-07-02T01:50:58;20.48;;;6.30;;
19482;SDS011;9882;51.166;6.992;2023-07-02T01:53:29;22.00;;;6.38;;
19482;SDS011;9882;51.166;6.992;2023-07-02T01:56:02;24.25;;;6.10;;
19482;SDS011;9882;51.166;6.992;2023-07-02T01:58:32;26.00;;;5.90;;
19482;SDS011;9882;51.166;6.992;2023-07-02T02:01:02;19.05;;;6.43;;
19482;SDS011;9882;51.166;6.992;2023-07-02T02:03:32;22.45;;;6.40;;
19482;SDS011;9882;51.166;6.992;2023-07-02T02:06:03;21.63;;;6.43;;
19482;SDS011;9882;51.166;6.992;2023-07-02T02:08:34;16.83;;;5.35;;
19482;SDS011;9882;51.166;6.992;2023-07-02T02:11:04;26.80;;;6.93;;
19482;SDS011;9882;51.166;6.992;2023-07-02T02:13:34;24.48;;;6.95;;
19482;SDS011;9882;51.166;6.992;2023-07-02T02:16:04;24.02;;;7.45;;
19482;SDS011;9882;51.166;6.992;2023-07-02T02:18:34;27.92;;;6.78;;
19482;SDS011;9882;51.166;6.992;2023-07-02T02:21:03;25.85;;;8.02;;
19482;SDS011;9882;51.166;6.992;2023-07-02T02:23:39;30.00;;;7.55;;
19482;SDS011;9882;51.166;6.992;2023-07-02T02:26:08;28.38;;;7.30;;
19482;SDS011;9882;51.166;6.992;2023-07-02T02:28:39;24.20;;;7.72;;
19482;SDS011;9882;51.166;6.992;2023-07-02T02:31:08;23.35;;;6.95;;
19482;SDS011;9882;51.166;6.992;2023-07-02T02:33:39;25.40;;;7.07;;
19482;SDS011;9882;51.166;6.992;2023-07-02T02:36:10;28.45;;;7.53;;
19482;SDS011;9882;51.166;6.992;2023-07-02T02:38:41;20.85;;;7.30;;
19482;SDS011;9882;51.166;6.992;2023-07-02T02:41:10;23.08;;;8.27;;
19482;SDS011;9882;51.166;6.992;2023-07-02T02:43:45;19.50;;;6.65;;
19482;SDS011;9882;51.166;6.992;2023-07-02T02:46:19;24.73;;;7.60;;
19482;SDS011;9882;51.166;6.992;2023-07-02T02:48:49;20.80;;;6.85;;
19482;SDS011;9882;51.166;6.992;2023-07-02T02:51:19;31.17;;;8.55;;
19482;SDS011;9882;51.166;6.992;2023-07-02T02:53:50;29.27;;;8.27;;
19482;SDS011;9882;51.166;6.992;2023-07-02T02:56:19;28.50;;;8.93;;
19482;SDS011;9882;51.166;6.992;2023-07-02T02:58:49;25.05;;;8.13;;
19482;SDS011;9882;51.166;6.992;2023-07-02T03:01:18;30.35;;;8.05;;
19482;SDS011;9882;51.166;6.992;2023-07-02T03:03:47;29.60;;;9.35;;
19482;SDS011;9882;51.166;6.992;2023-07-02T03:06:17;30.40;;;8.93;;
19482;SDS011;9882;51.166;6.992;2023-07-02T03:08:46;24.95;;;7.97;;
19482;SDS011;9882;51.166;6.992;2023-07-02T03:11:17;30.88;;;8.93;;
19482;SDS011;9882;51.166;6.992;2023-07-02T03:13:47;25.58;;;8.43;;
19482;SDS011;9882;51.166;6.992;2023-07-02T03:16:16;29.05;;;8.88;;
19482;SDS011;9882;51.166;6.992;2023-07-02T03:18:48;25.20;;;7.32;;
19482;SDS011;9882;51.166;6.992;2023-07-02T03:21:18;36.10;;;9.18;;
19482;SDS011;9882;51.166;6.992;2023-07-02T03:23:48;30.27;;;9.13;;
19482;SDS011;9882;51.166;6.992;2023-07-02T03:26:19;26.13;;;8.75;;
19482;SDS011;9882;51.166;6.992;2023-07-02T03:28:50;24.73;;;9.05;;
19482;SDS011;9882;51.166;6.992;2023-07-02T03:31:19;33.08;;;9.80;;
19482;SDS011;9882;51.166;6.992;2023-07-02T03:33:49;33.03;;;10.18;;
19482;SDS011;9882;51.166;6.992;2023-07-02T03:36:19;29.55;;;10.25;;
19482;SDS011;9882;51.166;6.992;2023-07-02T03:38:48;26.42;;;9.93;;
19482;SDS011;9882;51.166;6.992;2023-07-02T03:41:19;28.63;;;9.05;;
19482;SDS011;9882;51.166;6.992;2023-07-02T03:43:49;28.50;;;9.45;;
19482;SDS011;9882;51.166;6.992;2023-07-02T03:46:19;30.70;;;9.82;;
19482;SDS011;9882;51.166;6.992;2023-07-02T03:48:48;31.35;;;8.68;;
19482;SDS011;9882;51.166;6.992;2023-07-02T03:51:17;33.17;;;11.32;;
19482;SDS011;9882;51.166;6.992;2023-07-02T03:53:47;29.40;;;9.13;;
19482;SDS011;9882;51.166;6.992;2023-07-02T03:56:16;30.15;;;8.73;;
19482;SDS011;9882;51.166;6.992;2023-07-02T03:58:47;26.23;;;10.30;;
19482;SDS011;9882;51.166;6.992;2023-07-02T04:01:16;40.60;;;11.60;;
19482;SDS011;9882;51.166;6.992;2023-07-02T04:03:47;34.60;;;10.43;;
19482;SDS011;9882;51.166;6.992;2023-07-02T04:06:17;35.28;;;11.25;;
19482;SDS011;9882;51.166;6.992;2023-07-02T04:08:47;30.80;;;10.13;;
19482;SDS011;9882;51.166;6.992;2023-07-02T04:11:16;29.70;;;10.45;;
19482;SDS011;9882;51.166;6.992;2023-07-02T04:13:47;38.78;;;12.20;;
19482;SDS011;9882;51.166;6.992;2023-07-02T04:16:16;31.63;;;11.10;;
19482;SDS011;9882;51.166;6.992;2023-07-02T04:18:46;38.25;;;11.82;;
19482;SDS011;9882;51.166;6.992;2023-07-02T04:21:15;32.88;;;11.68;;
19482;SDS011;9882;51.166;6.992;2023-07-02T04:23:44;28.58;;;10.80;;
19482;SDS011;9882;51.166;6.992;2023-07-02T04:26:14;32.40;;;11.23;;
19482;SDS011;9882;51.166;6.992;2023-07-02T04:28:43;34.40;;;11.65;;
19482;SDS011;9882;51.166;6.992;2023-07-02T04:31:14;33.45;;;10.52;;
19482;SDS011;9882;51.166;6.992;2023-07-02T04:33:44;40.92;;;12.18;;
19482;SDS011;9882;51.166;6.992;2023-07-02T04:36:13;38.22;;;12.15;;
19482;SDS011;9882;51.166;6.992;2023-07-02T04:38:42;34.40;;;11.15;;
19482;SDS011;9882;51.166;6.992;2023-07-02T04:41:12;38.65;;;12.73;;
19482;SDS011;9882;51.166;6.992;2023-07-02T04:43:41;42.63;;;12.75;;
19482;SDS011;9882;51.166;6.992;2023-07-02T04:46:12;36.35;;;12.52;;
19482;SDS011;9882;51.166;6.992;2023-07-02T04:48:45;37.95;;;13.43;;
19482;SDS011;9882;51.166;6.992;2023-07-02T04:51:14;39.85;;;12.98;;
19482;SDS011;9882;51.166;6.992;2023-07-02T04:53:44;39.97;;;12.95;;
19482;SDS011;9882;51.166;6.992;2023-07-02T04:56:13;40.50;;;12.23;;
19482;SDS011;9882;51.166;6.992;2023-07-02T04:58:43;34.55;;;12.13;;
19482;SDS011;9882;51.166;6.992;2023-07-02T05:01:16;38.92;;;13.88;;
19482;SDS011;9882;51.166;6.992;2023-07-02T05:03:46;31.38;;;10.52;;
19482;SDS011;9882;51.166;6.992;2023-07-02T05:06:15;35.63;;;11.88;;
19482;SDS011;9882;51.166;6.992;2023-07-02T05:08:45;42.60;;;12.57;;
19482;SDS011;9882;51.166;6.992;2023-07-02T05:11:14;35.15;;;11.60;;
19482;SDS011;9882;51.166;6.992;2023-07-02T05:13:43;36.50;;;12.73;;
19482;SDS011;9882;51.166;6.992;2023-07-02T05:16:13;42.90;;;13.32;;
19482;SDS011;9882;51.166;6.992;2023-07-02T05:18:44;42.70;;;12.63;;
19482;SDS011;9882;51.166;6.992;2023-07-02T05:21:17;42.35;;;12.85;;
19482;SDS011;9882;51.166;6.992;2023-07-02T05:23:46;38.65;;;13.70;;
19482;SDS011;9882;51.166;6.992;2023-07-02T05:26:17;35.35;;;12.65;;
19482;SDS011;9882;51.166;6.992;2023-07-02T05:28:46;45.92;;;13.38;;
19482;SDS011;9882;51.166;6.992;2023-07-02T05:31:15;39.47;;;13.45;;
19482;SDS011;9882;51.166;6.992;2023-07-02T05:33:46;37.90;;;14.13;;
19482;SDS011;9882;51.166;6.992;2023-07-02T05:36:15;48.33;;;14.75;;
19482;SDS011;9882;51.166;6.992;2023-07-02T05:38:44;49.83;;;15.77;;
19482;SDS011;9882;51.166;6.992;2023-07-02T05:41:17;40.15;;;13.90;;
19482;SDS011;9882;51.166;6.992;2023-07-02T05:43:47;48.92;;;15.32;;
19482;SDS011;9882;51.166;6.992;2023-07-02T05:46:16;42.85;;;14.95;;
19482;SDS011;9882;51.166;6.992;2023-07-02T05:48:47;43.75;;;15.05;;
19482;SDS011;9882;51.166;6.992;2023-07-02T05:51:19;37.15;;;14.23;;
19482;SDS011;9882;51.166;6.992;2023-07-02T05:53:49;37.53;;;13.38;;
19482;SDS011;9882;51.166;6.992;2023-07-02T05:56:19;45.70;;;14.50;;
19482;SDS011;9882;51.166;6.992;2023-07-02T05:58:48;39.28;;;14.60;;
19482;SDS011;9882;51.166;6.992;2023-07-02T06:01:18;36.83;;;13.93;;
19482;SDS011;9882;51.166;6.992;2023-07-02T06:03:50;33.30;;;12.93;;
19482;SDS011;9882;51.166;6.992;2023-07-02T06:06:21;39.92;;;14.02;;
19482;SDS011;9882;51.166;6.992;2023-07-02T06:08:51;44.90;;;14.63;;
19482;SDS011;9882;51.166;6.992;2023-07-02T06:11:20;43.60;;;14.73;;
19482;SDS011;9882;51.166;6.992;2023-07-02T06:13:50;42.20;;;15.10;;
19482;SDS011;9882;51.166;6.992;2023-07-02T06:16:19;39.60;;;14.73;;
19482;SDS011;9882;51.166;6.992;2023-07-02T06:18:50;39.00;;;14.25;;
19482;SDS011;9882;51.166;6.992;2023-07-02T06:21:19;36.60;;;13.88;;
19482;SDS011;9882;51.166;6.992;2023-07-02T06:23:48;43.72;;;14.18;;
19482;SDS011;9882;51.166;6.992;2023-07-02T06:26:18;41.15;;;14.52;;
19482;SDS011;9882;51.166;6.992;2023-07-02T06:28:47;38.00;;;12.88;;
19482;SDS011;9882;51.166;6.992;2023-07-02T06:31:16;39.15;;;14.05;;
19482;SDS011;9882;51.166;6.992;2023-07-02T06:33:46;42.85;;;14.52;;
19482;SDS011;9882;51.166;6.992;2023-07-02T06:36:17;37.25;;;13.18;;
19482;SDS011;9882;51.166;6.992;2023-07-02T06:38:47;39.33;;;13.80;;
19482;SDS011;9882;51.166;6.992;2023-07-02T06:41:17;38.38;;;12.23;;
19482;SDS011;9882;51.166;6.992;2023-07-02T06:43:46;40.05;;;13.95;;
19482;SDS011;9882;51.166;6.992;2023-07-02T06:46:15;42.83;;;13.50;;
19482;SDS011;9882;51.166;6.992;2023-07-02T06:48:45;37.35;;;13.93;;
19482;SDS011;9882;51.166;6.992;2023-07-02T06:51:14;42.15;;;14.23;;
19482;SDS011;9882;51.166;6.992;2023-07-02T06:53:45;44.60;;;14.05;;
19482;SDS011;9882;51.166;6.992;2023-07-02T06:56:15;43.08;;;13.43;;
19482;SDS011;9882;51.166;6.992;2023-07-02T06:58:44;41.30;;;13.95;;
19482;SDS011;9882;51.166;6.992;2023-07-02T07:01:13;39.15;;;13.43;;
19482;SDS011;9882;51.166;6.992;2023-07-02T07:03:43;40.80;;;13.68;;
19482;SDS011;9882;51.166;6.992;2023-07-02T07:06:12;35.10;;;13.18;;
19482;SDS011;9882;51.166;6.992;2023-07-02T07:08:42;44.50;;;14.65;;
19482;SDS011;9882;51.166;6.992;2023-07-02T07:11:13;37.30;;;13.52;;
19482;SDS011;9882;51.166;6.992;2023-07-02T07:13:43;35.67;;;13.27;;
19482;SDS011;9882;51.166;6.992;2023-07-02T07:16:14;43.33;;;13.32;;
19482;SDS011;9882;51.166;6.992;2023-07-02T07:18:44;37.05;;;12.95;;
19482;SDS011;9882;51.166;6.992;2023-07-02T07:21:15;40.25;;;13.80;;
19482;SDS011;9882;51.166;6.992;2023-07-02T07:23:45;42.00;;;13.65;;
19482;SDS011;9882;51.166;6.992;2023-07-02T07:26:18;35.35;;;13.40;;
19482;SDS011;9882;51.166;6.992;2023-07-02T07:28:50;39.65;;;13.70;;
19482;SDS011;9882;51.166;6.992;2023-07-02T07:31:22;46.40;;;13.02;;
19482;SDS011;9882;51.166;6.992;2023-07-02T07:33:51;41.13;;;13.98;;
19482;SDS011;9882;51.166;6.992;2023-07-02T07:36:25;40.17;;;12.88;;
19482;SDS011;9882;51.166;6.992;2023-07-02T07:39:00;34.63;;;12.27;;
19482;SDS011;9882;51.166;6.992;2023-07-02T07:41:32;32.83;;;11.70;;
19482;SDS011;9882;51.166;6.992;2023-07-02T07:44:01;39.08;;;12.60;;
19482;SDS011;9882;51.166;6.992;2023-07-02T07:46:31;42.60;;;12.25;;
19482;SDS011;9882;51.166;6.992;2023-07-02T07:49:00;38.05;;;11.75;;
19482;SDS011;9882;51.166;6.992;2023-07-02T07:51:30;32.70;;;12.68;;
19482;SDS011;9882;51.166;6.992;2023-07-02T07:53:59;33.83;;;11.60;;
19482;SDS011;9882;51.166;6.992;2023-07-02T07:56:29;31.10;;;10.93;;
19482;SDS011;9882;51.166;6.992;2023-07-02T07:59:00;38.75;;;11.38;;
19482;SDS011;9882;51.166;6.992;2023-07-02T08:01:30;29.35;;;10.65;;
19482;SDS011;9882;51.166;6.992;2023-07-02T08:04:00;35.10;;;11.57;;
19482;SDS011;9882;51.166;6.992;2023-07-02T08:06:35;35.85;;;10.43;;
19482;SDS011;9882;51.166;6.992;2023-07-02T08:09:05;40.33;;;11.63;;
19482;SDS011;9882;51.166;6.992;2023-07-02T08:11:34;30.95;;;10.68;;
19482;SDS011;9882;51.166;6.992;2023-07-02T08:14:12;39.70;;;11.38;;
19482;SDS011;9882;51.166;6.992;2023-07-02T08:16:48;29.30;;;10.18;;
19482;SDS011;9882;51.166;6.992;2023-07-02T08:19:41;34.90;;;10.38;;
19482;SDS011;9882;51.166;6.992;2023-07-02T08:22:11;29.20;;;10.73;;
19482;SDS011;9882;51.166;6.992;2023-07-02T08:24:43;37.70;;;10.65;;
19482;SDS011;9882;51.166;6.992;2023-07-02T08:27:20;35.20;;;10.48;;
19482;SDS011;9882;51.166;6.992;2023-07-02T08:29:51;36.65;;;10.85;;
19482;SDS011;9882;51.166;6.992;2023-07-02T08:32:22;33.47;;;10.20;;
19482;SDS011;9882;51.166;6.992;2023-07-02T08:34:52;30.40;;;10.23;;
19482;SDS011;9882;51.166;6.992;2023-07-02T08:37:22;34.40;;;11.25;;
19482;SDS011;9882;51.166;6.992;2023-07-02T08:39:52;33.42;;;11.13;;
19482;SDS011;9882;51.166;6.992;2023-07-02T08:42:22;33.30;;;10.20;;
19482;SDS011;9882;51.166;6.992;2023-07-02T08:44:58;35.92;;;11.23;;
19482;SDS011;9882;51.166;6.992;2023-07-02T08:47:33;39.35;;;11.95;;
19482;SDS011;9882;51.166;6.992;2023-07-02T08:50:07;32.63;;;10.60;;
19482;SDS011;9882;51.166;6.992;2023-07-02T08:52:50;37.78;;;11.05;;
19482;SDS011;9882;51.166;6.992;2023-07-02T08:55:40;38.35;;;11.05;;
19482;SDS011;9882;51.166;6.992;2023-07-02T08:58:10;37.50;;;11.73;;
19482;SDS011;9882;51.166;6.992;2023-07-02T09:00:41;31.52;;;10.73;;
19482;SDS011;9882;51.166;6.992;2023-07-02T09:03:37;32.70;;;10.70;;
19482;SDS011;9882;51.166;6.992;2023-07-02T09:06:21;33.97;;;11.30;;
19482;SDS011;9882;51.166;6.992;2023-07-02T09:09:03;32.72;;;11.45;;
19482;SDS011;9882;51.166;6.992;2023-07-02T09:11:33;44.38;;;11.77;;
19482;SDS011;9882;51.166;6.992;2023-07-02T09:14:02;36.72;;;11.07;;
19482;SDS011;9882;51.166;6.992;2023-07-02T09:16:34;34.60;;;10.50;;
19482;SDS011;9882;51.166;6.992;2023-07-02T09:19:06;45.90;;;11.38;;
19482;SDS011;9882;51.166;6.992;2023-07-02T09:21:41;37.38;;;11.63;;
19482;SDS011;9882;51.166;6.992;2023-07-02T09:24:15;41.72;;;11.65;;
19482;SDS011;9882;51.166;6.992;2023-07-02T09:26:46;39.17;;;12.05;;
19482;SDS011;9882;51.166;6.992;2023-07-02T09:29:18;35.55;;;11.35;;
19482;SDS011;9882;51.166;6.992;2023-07-02T09:31:51;42.15;;;12.70;;
19482;SDS011;9882;51.166;6.992;2023-07-02T09:34:33;35.58;;;11.57;;
19482;SDS011;9882;51.166;6.992;2023-07-02T09:37:04;35.72;;;11.43;;
19482;SDS011;9882;51.166;6.992;2023-07-02T09:39:35;35.75;;;11.50;;
19482;SDS011;9882;51.166;6.992;2023-07-02T09:42:06;32.40;;;10.90;;
19482;SDS011;9882;51.166;6.992;2023-07-02T09:44:36;42.40;;;12.27;;
19482;SDS011;9882;51.166;6.992;2023-07-02T09:47:13;35.60;;;11.68;;
19482;SDS011;9882;51.166;6.992;2023-07-02T09:49:48;42.78;;;12.95;;
19482;SDS011;9882;51.166;6.992;2023-07-02T09:52:20;36.10;;;10.85;;
19482;SDS011;9882;51.166;6.992;2023-07-02T09:54:50;39.20;;;12.13;;
19482;SDS011;9882;51.166;6.992;2023-07-02T09:57:19;41.35;;;12.50;;
19482;SDS011;9882;51.166;6.992;2023-07-02T09:59:49;33.38;;;11.07;;
19482;SDS011;9882;51.166;6.992;2023-07-02T10:02:23;35.60;;;12.55;;
19482;SDS011;9882;51.166;6.992;2023-07-02T10:04:52;34.80;;;12.07;;
19482;SDS011;9882;51.166;6.992;2023-07-02T10:07:26;36.97;;;11.80;;
19482;SDS011;9882;51.166;6.992;2023-07-02T10:09:57;38.42;;;12.45;;
19482;SDS011;9882;51.166;6.992;2023-07-02T10:16:27;34.20;;;11.70;;
19482;SDS011;9882;51.166;6.992;2023-07-02T10:19:09;52.50;;;12.63;;
19482;SDS011;9882;51.166;6.992;2023-07-02T10:21:38;39.88;;;12.68;;
19482;SDS011;9882;51.166;6.992;2023-07-02T10:27:11;40.35;;;12.68;;
19482;SDS011;9882;51.166;6.992;2023-07-02T10:29:49;39.70;;;13.30;;
19482;SDS011;9882;51.166;6.992;2023-07-02T10:32:28;37.55;;;11.63;;
19482;SDS011;9882;51.166;6.992;2023-07-02T10:34:59;34.50;;;12.38;;
19482;SDS011;9882;51.166;6.992;2023-07-02T10:45:50;38.33;;;12.98;;
19482;SDS011;9882;51.166;6.992;2023-07-02T10:48:22;40.13;;;13.95;;
19482;SDS011;9882;51.166;6.992;2023-07-02T10:50:58;38.70;;;12.32;;
19482;SDS011;9882;51.166;6.992;2023-07-02T10:54:38;43.78;;;13.05;;
19482;SDS011;9882;51.166;6.992;2023-07-02T10:57:27;37.60;;;12.70;;
19482;SDS011;9882;51.166;6.992;2023-07-02T11:00:03;35.88;;;12.27;;
19482;SDS011;9882;51.166;6.992;2023-07-02T11:02:34;39.95;;;12.13;;
19482;SDS011;9882;51.166;6.992;2023-07-02T11:08:14;34.97;;;11.25;;
19482;SDS011;9882;51.166;6.992;2023-07-02T11:10:43;30.45;;;10.25;;
19482;SDS011;9882;51.166;6.992;2023-07-02T11:13:12;28.10;;;10.10;;
19482;SDS011;9882;51.166;6.992;2023-07-02T11:15:41;32.30;;;10.00;;
19482;SDS011;9882;51.166;6.992;2023-07-02T11:18:13;23.92;;;8.80;;
19482;SDS011;9882;51.166;6.992;2023-07-02T11:20:43;30.20;;;9.43;;
19482;SDS011;9882;51.166;6.992;2023-07-02T11:23:19;33.03;;;10.48;;
19482;SDS011;9882;51.166;6.992;2023-07-02T11:25:55;32.08;;;9.85;;
19482;SDS011;9882;51.166;6.992;2023-07-02T11:28:25;28.95;;;10.50;;
19482;SDS011;9882;51.166;6.992;2023-07-02T11:30:54;34.95;;;11.05;;
19482;SDS011;9882;51.166;6.992;2023-07-02T11:33:33;32.90;;;10.77;;
19482;SDS011;9882;51.166;6.992;2023-07-02T11:36:03;33.40;;;9.90;;
19482;SDS011;9882;51.166;6.992;2023-07-02T11:38:34;29.77;;;9.30;;
19482;SDS011;9882;51.166;6.992;2023-07-02T11:41:04;28.30;;;8.30;;
19482;SDS011;9882;51.166;6.992;2023-07-02T11:43:32;34.13;;;9.70;;
19482;SDS011;9882;51.166;6.992;2023-07-02T11:46:01;29.15;;;9.13;;
19482;SDS011;9882;51.166;6.992;2023-07-02T11:48:30;33.38;;;9.43;;
19482;SDS011;9882;51.166;6.992;2023-07-02T11:50:59;30.83;;;9.48;;
19482;SDS011;9882;51.166;6.992;2023-07-02T11:53:27;24.88;;;8.63;;
19482;SDS011;9882;51.166;6.992;2023-07-02T11:55:57;35.63;;;8.57;;
19482;SDS011;9882;51.166;6.992;2023-07-02T11:58:26;34.03;;;8.73;;
19482;SDS011;9882;51.166;6.992;2023-07-02T12:00:54;31.42;;;8.05;;
19482;SDS011;9882;51.166;6.992;2023-07-02T12:03:23;25.80;;;8.32;;
19482;SDS011;9882;51.166;6.992;2023-07-02T12:05:51;24.67;;;8.27;;
19482;SDS011;9882;51.166;6.992;2023-07-02T12:08:20;29.75;;;8.57;;
19482;SDS011;9882;51.166;6.992;2023-07-02T12:10:48;26.25;;;7.32;;
19482;SDS011;9882;51.166;6.992;2023-07-02T12:13:18;24.17;;;7.65;;
19482;SDS011;9882;51.166;6.992;2023-07-02T12:15:47;27.63;;;8.10;;
19482;SDS011;9882;51.166;6.992;2023-07-02T12:18:18;33.25;;;9.35;;
19482;SDS011;9882;51.166;6.992;2023-07-02T12:20:46;24.35;;;7.72;;
19482;SDS011;9882;51.166;6.992;2023-07-02T12:23:15;26.77;;;8.07;;
19482;SDS011;9882;51.166;6.992;2023-07-02T12:25:43;29.95;;;8.95;;
19482;SDS011;9882;51.166;6.992;2023-07-02T12:28:12;26.00;;;8.55;;
19482;SDS011;9882;51.166;6.992;2023-07-02T12:30:42;21.00;;;7.80;;
19482;SDS011;9882;51.166;6.992;2023-07-02T12:33:10;25.65;;;8.25;;
19482;SDS011;9882;51.166;6.992;2023-07-02T12:35:39;28.38;;;8.30;;
19482;SDS011;9882;51.166;6.992;2023-07-02T12:38:08;28.63;;;7.80;;
19482;SDS011;9882;51.166;6.992;2023-07-02T12:40:36;23.20;;;7.47;;
19482;SDS011;9882;51.166;6.992;2023-07-02T12:43:05;24.05;;;7.60;;
19482;SDS011;9882;51.166;6.992;2023-07-02T12:45:33;24.35;;;7.55;;
19482;SDS011;9882;51.166;6.992;2023-07-02T12:48:04;28.52;;;8.32;;
19482;SDS011;9882;51.166;6.992;2023-07-02T12:50:32;25.73;;;7.82;;
19482;SDS011;9882;51.166;6.992;2023-07-02T12:53:01;33.60;;;8.00;;
19482;SDS011;9882;51.166;6.992;2023-07-02T12:55:29;22.85;;;7.30;;
19482;SDS011;9882;51.166;6.992;2023-07-02T12:57:58;23.27;;;7.05;;
19482;SDS011;9882;51.166;6.992;2023-07-02T13:00:26;22.02;;;6.22;;
19482;SDS011;9882;51.166;6.992;2023-07-02T13:02:55;22.83;;;6.70;;
19482;SDS011;9882;51.166;6.992;2023-07-02T13:05:30;19.17;;;6.05;;
19482;SDS011;9882;51.166;6.992;2023-07-02T13:07:59;21.30;;;5.80;;
19482;SDS011;9882;51.166;6.992;2023-07-02T13:10:28;20.92;;;6.63;;
19482;SDS011;9882;51.166;6.992;2023-07-02T13:12:56;21.50;;;6.28;;
19482;SDS011;9882;51.166;6.992;2023-07-02T13:15:27;25.55;;;6.78;;
19482;SDS011;9882;51.166;6.992;2023-07-02T13:17:56;20.73;;;6.18;;
19482;SDS011;9882;51.166;6.992;2023-07-02T13:20:24;27.65;;;6.60;;
19482;SDS011;9882;51.166;6.992;2023-07-02T13:22:54;22.27;;;6.40;;
19482;SDS011;9882;51.166;6.992;2023-07-02T13:25:22;23.85;;;6.55;;
19482;SDS011;9882;51.166;6.992;2023-07-02T13:27:51;18.98;;;6.22;;
19482;SDS011;9882;51.166;6.992;2023-07-02T13:30:19;23.08;;;6.43;;
19482;SDS011;9882;51.166;6.992;2023-07-02T13:32:48;27.27;;;6.65;;
19482;SDS011;9882;51.166;6.992;2023-07-02T13:35:17;27.83;;;6.80;;
19482;SDS011;9882;51.166;6.992;2023-07-02T13:37:45;26.25;;;6.43;;
19482;SDS011;9882;51.166;6.992;2023-07-02T13:40:15;28.27;;;7.63;;
19482;SDS011;9882;51.166;6.992;2023-07-02T13:42:44;19.73;;;6.55;;
19482;SDS011;9882;51.166;6.992;2023-07-02T13:45:12;29.65;;;7.43;;
19482;SDS011;9882;51.166;6.992;2023-07-02T13:47:41;27.77;;;7.10;;
19482;SDS011;9882;51.166;6.992;2023-07-02T13:50:09;21.92;;;7.05;;
19482;SDS011;9882;51.166;6.992;2023-07-02T13:52:38;24.92;;;7.18;;
19482;SDS011;9882;51.166;6.992;2023-07-02T13:55:07;22.23;;;7.03;;
19482;SDS011;9882;51.166;6.992;2023-07-02T13:57:37;23.00;;;6.78;;
19482;SDS011;9882;51.166;6.992;2023-07-02T14:00:08;25.70;;;7.60;;
19482;SDS011;9882;51.166;6.992;2023-07-02T14:02:37;29.77;;;8.05;;
19482;SDS011;9882;51.166;6.992;2023-07-02T14:05:06;23.90;;;7.43;;
19482;SDS011;9882;51.166;6.992;2023-07-02T14:07:35;31.08;;;8.57;;
19482;SDS011;9882;51.166;6.992;2023-07-02T14:10:04;25.30;;;7.32;;
19482;SDS011;9882;51.166;6.992;2023-07-02T14:12:33;22.50;;;7.82;;
19482;SDS011;9882;51.166;6.992;2023-07-02T14:15:02;30.60;;;7.95;;
19482;SDS011;9882;51.166;6.992;2023-07-02T14:17:32;24.13;;;8.13;;
19482;SDS011;9882;51.166;6.992;2023-07-02T14:20:00;26.63;;;8.48;;
19482;SDS011;9882;51.166;6.992;2023-07-02T14:22:29;26.80;;;7.88;;
19482;SDS011;9882;51.166;6.992;2023-07-02T14:24:58;32.13;;;9.30;;
19482;SDS011;9882;51.166;6.992;2023-07-02T14:27:26;24.92;;;8.63;;
19482;SDS011;9882;51.166;6.992;2023-07-02T14:29:55;35.78;;;8.68;;
19482;SDS011;9882;51.166;6.992;2023-07-02T14:32:24;32.50;;;6.93;;
19482;SDS011;9882;51.166;6.992;2023-07-02T14:34:53;31.35;;;8.13;;
19482;SDS011;9882;51.166;6.992;2023-07-02T14:37:22;31.73;;;8.90;;
19482;SDS011;9882;51.166;6.992;2023-07-02T14:39:50;26.52;;;8.60;;
19482;SDS011;9882;51.166;6.992;2023-07-02T14:42:27;29.20;;;8.90;;
19482;SDS011;9882;51.166;6.992;2023-07-02T14:44:55;25.05;;;8.23;;
19482;SDS011;9882;51.166;6.992;2023-07-02T14:47:24;35.05;;;8.30;;
19482;SDS011;9882;51.166;6.992;2023-07-02T14:49:54;23.60;;;7.65;;
19482;SDS011;9882;51.166;6.992;2023-07-02T14:52:22;30.63;;;8.65;;
19482;SDS011;9882;51.166;6.992;2023-07-02T14:54:51;30.67;;;8.65;;
19482;SDS011;9882;51.166;6.992;2023-07-02T14:57:19;28.45;;;8.85;;
19482;SDS011;9882;51.166;6.992;2023-07-02T14:59:49;26.73;;;7.82;;
19482;SDS011;9882;51.166;6.992;2023-07-02T15:02:18;22.90;;;7.88;;
19482;SDS011;9882;51.166;6.992;2023-07-02T15:04:47;26.85;;;8.13;;
19482;SDS011;9882;51.166;6.992;2023-07-02T15:07:17;28.98;;;7.78;;
19482;SDS011;9882;51.166;6.992;2023-07-02T15:09:47;27.27;;;8.15;;
19482;SDS011;9882;51.166;6.992;2023-07-02T15:12:16;28.83;;;8.68;;
19482;SDS011;9882;51.166;6.992;2023-07-02T15:14:44;23.10;;;7.10;;
19482;SDS011;9882;51.166;6.992;2023-07-02T15:17:13;28.05;;;9.27;;
19482;SDS011;9882;51.166;6.992;2023-07-02T15:19:41;28.63;;;8.52;;